createdAt,value
2023-05-22T00:01:56.532Z,36.67
2023-05-22T00:04:23.405Z,36.50
2023-05-22T00:06:50.449Z,37.38
2023-05-22T00:09:17.215Z,35.95
2023-05-22T00:11:43.888Z,35.35
2023-05-22T00:14:10.627Z,35.97
2023-05-22T00:16:39.478Z,35.33
2023-05-22T00:19:07.130Z,35.38
2023-05-22T00:21:34.681Z,37.60
2023-05-22T00:24:02.035Z,35.55
2023-05-22T00:26:28.740Z,35.10
2023-05-22T00:28:55.690Z,35.33
2023-05-22T00:31:22.795Z,35.67
2023-05-22T00:33:49.609Z,36.22
2023-05-22T00:36:16.354Z,35.83
2023-05-22T00:38:43.058Z,35.40
2023-05-22T00:41:09.719Z,34.60
2023-05-22T00:43:39.333Z,37.42
2023-05-22T00:46:07.656Z,35.30
2023-05-22T00:48:34.540Z,36.63
2023-05-22T00:51:01.736Z,36.08
2023-05-22T00:53:29.908Z,36.35
2023-05-22T00:55:58.538Z,35.35
2023-05-22T00:58:27.389Z,36.53
2023-05-22T01:00:55.245Z,35.28
2023-05-22T01:03:26.285Z,35.33
2023-05-22T01:05:54.355Z,33.95
2023-05-22T01:08:21.487Z,35.80
2023-05-22T01:10:54.618Z,35.58
2023-05-22T01:13:33.673Z,36.50
2023-05-22T01:16:19.674Z,36.28
2023-05-22T01:19:00.758Z,35.88
2023-05-22T01:21:46.898Z,33.45
2023-05-22T01:24:25.495Z,34.58
2023-05-22T01:27:29.855Z,35.13
2023-05-22T01:30:14.016Z,34.42
2023-05-22T01:32:43.650Z,34.38
2023-05-22T01:35:11.638Z,35.85
2023-05-22T01:37:39.114Z,35.25
2023-05-22T01:40:07.549Z,34.47
2023-05-22T01:42:35.247Z,35.88
2023-05-22T01:45:01.971Z,35.05
2023-05-22T01:47:28.881Z,35.13
2023-05-22T01:49:55.771Z,35.20
2023-05-22T01:52:31.932Z,32.92
2023-05-22T01:55:09.616Z,33.55
2023-05-22T01:57:47.841Z,33.38
2023-05-22T02:00:16.494Z,33.83
2023-05-22T02:02:48.057Z,33.65
2023-05-22T02:05:18.770Z,34.40
2023-05-22T02:07:47.581Z,34.53
2023-05-22T02:10:15.566Z,33.58
2023-05-22T02:12:42.891Z,31.95
2023-05-22T02:15:11.385Z,34.53
2023-05-22T02:17:42.511Z,33.65
2023-05-22T02:20:15.281Z,33.95
2023-05-22T02:22:45.301Z,35.93
2023-05-22T02:25:16.865Z,34.13
2023-05-22T02:27:45.893Z,34.42
2023-05-22T02:30:13.582Z,34.22
2023-05-22T02:32:42.250Z,35.35
2023-05-22T02:35:09.725Z,36.65
2023-05-22T02:37:37.102Z,35.88
2023-05-22T02:40:06.195Z,35.22
2023-05-22T02:42:34.419Z,34.60
2023-05-22T02:45:02.066Z,34.55
2023-05-22T02:47:28.847Z,34.85
2023-05-22T02:49:57.751Z,34.42
2023-05-22T02:52:24.879Z,32.80
2023-05-22T02:54:51.667Z,33.40
2023-05-22T02:57:19.251Z,34.00
2023-05-22T02:59:46.067Z,31.73
2023-05-22T03:02:15.252Z,32.78
2023-05-22T03:04:41.994Z,32.95
2023-05-22T03:07:09.342Z,32.90
2023-05-22T03:09:36.328Z,33.00
2023-05-22T03:12:03.375Z,32.78
2023-05-22T03:14:30.288Z,33.40
2023-05-22T03:17:02.411Z,32.95
2023-05-22T03:19:29.546Z,33.40
2023-05-22T03:21:56.370Z,31.48
2023-05-22T03:24:23.123Z,36.05
2023-05-22T03:26:50.108Z,34.38
2023-05-22T03:29:23.890Z,33.20
2023-05-22T03:31:50.683Z,34.08
2023-05-22T03:34:17.385Z,32.53
2023-05-22T03:36:46.499Z,33.22
2023-05-22T03:39:15.624Z,32.13
2023-05-22T03:41:51.171Z,33.00
2023-05-22T03:44:18.489Z,33.67
2023-05-22T03:46:46.237Z,32.28
2023-05-22T03:49:12.886Z,33.40
2023-05-22T03:51:39.543Z,33.63
2023-05-22T03:54:06.216Z,31.23
2023-05-22T03:56:32.905Z,37.45
2023-05-22T03:58:59.630Z,35.72
2023-05-22T04:01:27.240Z,37.13
2023-05-22T04:03:53.876Z,37.90
2023-05-22T04:06:23.454Z,37.65
2023-05-22T04:08:50.102Z,38.80
2023-05-22T04:11:17.008Z,37.45
2023-05-22T04:13:44.837Z,38.05
2023-05-22T04:16:11.549Z,38.53
2023-05-22T04:18:38.378Z,37.60
2023-05-22T04:21:07.976Z,35.38
2023-05-22T04:23:34.896Z,35.75
2023-05-22T04:26:04.347Z,35.92
2023-05-22T04:28:30.988Z,36.78
2023-05-22T04:30:57.795Z,35.97
2023-05-22T04:33:24.615Z,37.70
2023-05-22T04:35:51.835Z,36.25
2023-05-22T04:38:18.791Z,36.80
2023-05-22T04:40:45.644Z,36.28
2023-05-22T04:43:13.668Z,37.38
2023-05-22T04:45:42.156Z,35.78
2023-05-22T04:48:09.117Z,36.55
2023-05-22T04:50:38.589Z,35.92
2023-05-22T04:53:05.935Z,34.78
2023-05-22T04:55:35.575Z,35.63
2023-05-22T04:58:02.682Z,35.42
2023-05-22T05:00:29.473Z,35.83
2023-05-22T05:02:57.969Z,36.95
2023-05-22T05:05:25.547Z,36.90
2023-05-22T05:07:53.717Z,35.65
2023-05-22T05:10:20.722Z,36.13
2023-05-22T05:12:47.359Z,36.75
2023-05-22T05:15:14.146Z,37.08
2023-05-22T05:17:41.056Z,35.38
2023-05-22T05:20:08.435Z,37.63
2023-05-22T05:22:35.827Z,35.20
2023-05-22T05:25:05.394Z,36.42
2023-05-22T05:27:32.224Z,35.80
2023-05-22T05:29:59.233Z,36.28
2023-05-22T05:32:32.945Z,36.38
2023-05-22T05:35:08.118Z,36.83
2023-05-22T05:37:51.586Z,37.22
2023-05-22T05:40:18.397Z,35.58
2023-05-22T05:42:49.652Z,36.58
2023-05-22T05:45:18.743Z,36.92
2023-05-22T05:47:45.832Z,36.08
2023-05-22T05:50:15.424Z,36.08
2023-05-22T05:52:42.760Z,36.70
2023-05-22T05:55:14.130Z,35.80
2023-05-22T05:57:41.458Z,35.50
2023-05-22T06:00:12.545Z,35.92
2023-05-22T06:02:42.863Z,35.42
2023-05-22T06:05:23.780Z,35.85
2023-05-22T06:07:58.754Z,35.78
2023-05-22T06:10:25.488Z,36.30
2023-05-22T06:12:59.021Z,36.60
2023-05-22T06:15:25.697Z,36.50
2023-05-22T06:17:52.552Z,36.83
2023-05-22T06:20:19.897Z,35.60
2023-05-22T06:22:47.205Z,36.53
2023-05-22T06:25:13.993Z,34.65
2023-05-22T06:27:40.847Z,35.47
2023-05-22T06:30:08.622Z,36.30
2023-05-22T06:32:38.954Z,34.53
2023-05-22T06:35:07.186Z,38.33
2023-05-22T06:37:35.581Z,37.60
2023-05-22T06:40:03.449Z,36.70
2023-05-22T06:42:40.629Z,37.17
2023-05-22T06:45:25.725Z,39.30
2023-05-22T06:48:12.956Z,39.28
2023-05-22T06:50:52.917Z,37.85
2023-05-22T06:53:20.163Z,38.42
2023-05-22T06:55:47.757Z,37.25
2023-05-22T06:58:22.199Z,37.55
2023-05-22T07:00:50.437Z,38.25
2023-05-22T07:03:22.926Z,37.75
2023-05-22T07:06:16.181Z,38.05
2023-05-22T07:08:43.106Z,38.67
2023-05-22T07:11:09.789Z,37.88
2023-05-22T07:13:36.588Z,38.03
2023-05-22T07:16:06.277Z,37.97
2023-05-22T07:18:34.220Z,38.80
2023-05-22T07:21:01.495Z,38.70
2023-05-22T07:23:28.734Z,38.40
2023-05-22T07:25:55.522Z,37.80
2023-05-22T07:28:26.507Z,40.22
2023-05-22T07:33:27.665Z,38.45
2023-05-22T07:35:55.535Z,37.95
2023-05-22T07:38:22.621Z,37.83
2023-05-22T07:40:56.744Z,37.75
2023-05-22T07:43:24.671Z,38.33
2023-05-22T07:45:53.882Z,37.40
2023-05-22T07:48:25.006Z,37.13
2023-05-22T07:50:51.811Z,38.08
2023-05-22T07:53:18.670Z,38.67
2023-05-22T07:55:49.109Z,38.38
2023-05-22T07:58:15.994Z,39.20
2023-05-22T08:00:44.388Z,38.90
2023-05-22T08:03:12.332Z,38.60
2023-05-22T08:05:39.293Z,37.97
2023-05-22T08:08:06.115Z,38.05
2023-05-22T08:10:52.127Z,37.83
2023-05-22T08:13:22.643Z,40.10
2023-05-22T08:15:49.370Z,37.33
2023-05-22T08:18:16.253Z,37.80
2023-05-22T08:20:42.970Z,38.88
2023-05-22T08:23:09.682Z,40.10
2023-05-22T08:25:37.076Z,40.55
2023-05-22T08:28:04.093Z,40.22
2023-05-22T08:30:31.046Z,40.42
2023-05-22T08:32:57.753Z,39.25
2023-05-22T08:35:24.476Z,39.67
2023-05-22T08:37:51.647Z,38.38
2023-05-22T08:40:20.338Z,37.55
2023-05-22T08:42:47.952Z,38.67
2023-05-22T08:45:16.124Z,38.60
2023-05-22T08:47:44.224Z,37.83
2023-05-22T08:50:12.153Z,38.03
2023-05-22T08:52:51.518Z,40.70
2023-05-22T08:55:19.398Z,39.83
2023-05-22T08:57:46.832Z,38.40
2023-05-22T09:00:14.141Z,39.47
2023-05-22T09:02:41.656Z,40.33
2023-05-22T09:05:09.704Z,38.28
2023-05-22T09:07:37.936Z,41.95
2023-05-22T09:10:06.976Z,40.35
2023-05-22T09:12:33.907Z,39.60
2023-05-22T09:15:10.165Z,39.85
2023-05-22T09:17:41.021Z,42.50
2023-05-22T09:20:10.367Z,41.50
2023-05-22T09:22:38.267Z,42.78
2023-05-22T09:25:06.834Z,43.80
2023-05-22T09:27:34.122Z,43.05
2023-05-22T09:30:01.063Z,44.78
2023-05-22T09:32:31.393Z,45.97
2023-05-22T09:35:05.282Z,44.20
2023-05-22T09:37:36.465Z,42.30
2023-05-22T09:40:11.135Z,42.45
2023-05-22T09:42:37.849Z,42.10
2023-05-22T09:45:11.366Z,42.17
2023-05-22T09:47:46.017Z,41.03
2023-05-22T09:52:39.476Z,39.53
2023-05-22T09:55:08.576Z,38.53
2023-05-22T09:57:48.173Z,39.38
2023-05-22T10:00:17.913Z,40.75
2023-05-22T10:02:58.445Z,43.47
2023-05-22T10:05:33.864Z,46.53
2023-05-22T10:08:13.984Z,45.88
2023-05-22T10:10:43.571Z,45.50
2023-05-22T10:13:13.328Z,45.53
2023-05-22T10:15:41.053Z,47.08
2023-05-22T10:18:08.116Z,47.22
2023-05-22T10:20:35.629Z,52.70
2023-05-22T10:23:03.896Z,53.10
2023-05-22T10:25:30.722Z,54.03
2023-05-22T10:27:58.868Z,48.45
2023-05-22T10:30:34.646Z,48.78
2023-05-22T10:33:22.388Z,49.30
2023-05-22T10:35:59.034Z,49.55
2023-05-22T10:38:35.866Z,48.20
2023-05-22T10:41:06.710Z,47.13
2023-05-22T10:43:38.414Z,47.42
2023-05-22T10:46:07.130Z,47.65
2023-05-22T10:48:45.335Z,48.25
2023-05-22T10:51:22.319Z,48.03
2023-05-22T10:54:00.794Z,44.72
2023-05-22T10:56:34.792Z,48.47
2023-05-22T10:59:07.916Z,48.50
2023-05-22T11:01:39.642Z,48.05
2023-05-22T11:04:18.965Z,46.25
2023-05-22T11:07:08.502Z,48.13
2023-05-22T11:09:45.894Z,46.55
2023-05-22T11:12:19.220Z,46.70
2023-05-22T11:15:03.207Z,44.50
2023-05-22T11:17:31.092Z,47.83
2023-05-22T11:20:01.062Z,47.25
2023-05-22T11:22:39.697Z,49.22
2023-05-22T11:25:11.428Z,52.55
2023-05-22T11:27:40.540Z,50.33
2023-05-22T11:30:09.084Z,50.33
2023-05-22T11:32:40.461Z,51.38
2023-05-22T11:35:10.845Z,51.92
2023-05-22T11:37:41.538Z,52.53
2023-05-22T11:40:09.641Z,50.80
2023-05-22T11:42:37.591Z,51.58
2023-05-22T11:45:05.340Z,51.40
2023-05-22T11:47:32.312Z,54.30
2023-05-22T11:50:02.874Z,52.13
2023-05-22T11:52:34.033Z,47.70
2023-05-22T11:55:01.178Z,50.50
2023-05-22T11:57:28.320Z,53.17
2023-05-22T11:59:55.060Z,50.70
2023-05-22T12:02:21.874Z,54.25
2023-05-22T12:04:53.477Z,53.60
2023-05-22T12:07:21.537Z,54.53
2023-05-22T12:09:48.945Z,57.17
2023-05-22T12:12:16.300Z,55.88
2023-05-22T12:14:46.601Z,53.97
2023-05-22T12:17:14.321Z,55.00
2023-05-22T12:19:42.125Z,54.92
2023-05-22T12:22:10.165Z,53.35
2023-05-22T12:24:41.760Z,54.47
2023-05-22T12:27:12.740Z,52.65
2023-05-22T12:29:40.101Z,51.10
2023-05-22T12:32:12.174Z,53.38
2023-05-22T12:34:46.904Z,52.25
2023-05-22T12:39:59.470Z,54.65
2023-05-22T12:42:26.890Z,55.65
2023-05-22T12:44:55.115Z,55.47
2023-05-22T12:47:22.985Z,55.75
2023-05-22T12:49:50.008Z,56.83
2023-05-22T12:52:16.750Z,55.13
2023-05-22T12:54:43.472Z,53.05
2023-05-22T12:57:10.307Z,50.83
2023-05-22T12:59:37.252Z,52.42
2023-05-22T13:02:07.267Z,50.95
2023-05-22T13:04:34.099Z,53.58
2023-05-22T13:07:01.025Z,51.70
2023-05-22T13:09:27.832Z,52.50
2023-05-22T13:11:55.359Z,51.85
2023-05-22T13:14:22.087Z,51.67
2023-05-22T13:16:48.765Z,52.70
2023-05-22T13:19:15.516Z,51.83
2023-05-22T13:21:43.308Z,49.97
2023-05-22T13:24:10.000Z,49.03
2023-05-22T13:26:36.658Z,51.30
2023-05-22T13:29:04.212Z,51.72
2023-05-22T13:31:33.249Z,51.13
2023-05-22T13:34:02.928Z,50.80
2023-05-22T13:36:30.037Z,46.55
2023-05-22T13:38:56.857Z,49.95
2023-05-22T13:41:23.973Z,52.03
2023-05-22T13:43:50.641Z,53.40
2023-05-22T13:46:18.077Z,50.03
2023-05-22T13:48:44.773Z,50.92
2023-05-22T13:51:11.445Z,53.70
2023-05-22T13:53:38.438Z,53.78
2023-05-22T13:56:05.245Z,53.38
2023-05-22T13:58:31.896Z,52.80
2023-05-22T14:00:58.861Z,53.63
2023-05-22T14:03:25.667Z,52.60
2023-05-22T14:05:52.386Z,58.08
2023-05-22T14:08:19.102Z,58.30
2023-05-22T14:10:45.993Z,60.17
2023-05-22T14:13:12.684Z,57.03
2023-05-22T14:15:39.881Z,54.65
2023-05-22T14:18:06.724Z,55.53
2023-05-22T14:20:33.596Z,57.63
2023-05-22T14:23:00.342Z,54.20
2023-05-22T14:25:27.023Z,53.72
2023-05-22T14:27:53.688Z,55.67
2023-05-22T14:30:20.350Z,57.55
2023-05-22T14:32:47.430Z,57.22
2023-05-22T14:35:14.285Z,55.65
2023-05-22T14:37:40.925Z,55.13
2023-05-22T14:40:08.370Z,55.88
2023-05-22T14:42:36.157Z,53.75
2023-05-22T14:45:04.079Z,53.00
2023-05-22T14:47:30.893Z,50.40
2023-05-22T14:50:03.117Z,49.35
2023-05-22T14:52:41.197Z,50.55
2023-05-22T14:55:08.289Z,47.80
2023-05-22T14:57:34.937Z,47.67
2023-05-22T15:00:01.751Z,46.95
2023-05-22T15:02:28.810Z,47.45
2023-05-22T15:04:55.909Z,48.25
2023-05-22T15:07:26.671Z,48.67
2023-05-22T15:09:59.431Z,48.83
2023-05-22T15:12:26.076Z,52.17
2023-05-22T15:14:52.718Z,51.17
2023-05-22T15:17:19.422Z,51.65
2023-05-22T15:19:48.601Z,51.35
2023-05-22T15:22:19.207Z,51.03
2023-05-22T15:25:06.231Z,49.92
2023-05-22T15:27:34.860Z,49.80
2023-05-22T15:30:02.903Z,47.63
2023-05-22T15:32:32.282Z,44.67
2023-05-22T15:34:58.980Z,44.70
2023-05-22T15:37:25.739Z,44.13
2023-05-22T15:39:52.385Z,42.65
2023-05-22T15:42:19.131Z,41.83
2023-05-22T15:44:45.836Z,42.65
2023-05-22T15:47:12.506Z,42.78
2023-05-22T15:49:39.147Z,44.22
2023-05-22T15:52:06.159Z,42.72
2023-05-22T15:54:32.847Z,42.72
2023-05-22T15:56:59.526Z,41.50
2023-05-22T15:59:26.447Z,44.10
2023-05-22T16:01:53.166Z,42.92
2023-05-22T16:04:19.857Z,40.30
2023-05-22T16:06:46.539Z,40.42
2023-05-22T16:09:13.237Z,37.15
2023-05-22T16:11:39.961Z,36.78
2023-05-22T16:14:06.740Z,36.80
2023-05-22T16:16:33.969Z,34.28
2023-05-22T16:19:00.777Z,32.78
2023-05-22T16:21:27.468Z,33.05
2023-05-22T16:23:54.315Z,33.28
2023-05-22T16:26:21.731Z,33.88
2023-05-22T16:28:48.386Z,33.45
2023-05-22T16:31:18.985Z,31.05
2023-05-22T16:33:46.089Z,30.42
2023-05-22T16:36:12.924Z,31.50
2023-05-22T16:38:39.595Z,32.75
2023-05-22T16:41:06.303Z,32.20
2023-05-22T16:43:33.118Z,33.95
2023-05-22T16:45:59.948Z,35.75
2023-05-22T16:48:26.823Z,35.40
2023-05-22T16:50:54.077Z,34.00
2023-05-22T16:53:20.828Z,34.85
2023-05-22T16:55:47.683Z,34.15
2023-05-22T16:58:14.462Z,34.85
2023-05-22T17:00:41.706Z,34.13
2023-05-22T17:03:09.568Z,34.67
2023-05-22T17:05:43.137Z,33.95
2023-05-22T17:08:13.251Z,33.90
2023-05-22T17:10:43.129Z,34.58
2023-05-22T17:13:11.949Z,33.42
2023-05-22T17:15:38.922Z,34.70
2023-05-22T17:18:05.873Z,34.30
2023-05-22T17:20:32.774Z,33.47
2023-05-22T17:22:59.568Z,34.60
2023-05-22T17:25:26.234Z,31.75
2023-05-22T17:27:52.879Z,33.58
2023-05-22T17:30:19.545Z,34.67
2023-05-22T17:32:46.480Z,34.88
2023-05-22T17:35:13.454Z,36.15
2023-05-22T17:37:40.403Z,36.30
2023-05-22T17:40:08.067Z,36.63
2023-05-22T17:42:34.788Z,34.78
2023-05-22T17:45:01.575Z,36.38
2023-05-22T17:47:28.298Z,34.42
2023-05-22T17:49:55.252Z,35.45
2023-05-22T17:52:22.365Z,36.80
2023-05-22T17:54:49.891Z,36.35
2023-05-22T17:57:16.632Z,35.35
2023-05-22T17:59:44.033Z,37.67
2023-05-22T18:02:11.167Z,38.05
2023-05-22T18:04:38.116Z,36.58
2023-05-22T18:07:05.224Z,35.83
2023-05-22T18:09:32.559Z,37.38
2023-05-22T18:12:01.750Z,39.22
2023-05-22T18:14:28.572Z,33.85
2023-05-22T18:16:55.373Z,31.50
2023-05-22T18:19:22.252Z,33.45
2023-05-22T18:21:49.088Z,31.70
2023-05-22T18:24:15.787Z,31.83
2023-05-22T18:26:42.513Z,36.47
2023-05-22T18:29:10.282Z,35.03
2023-05-22T18:31:36.999Z,35.65
2023-05-22T18:34:03.892Z,30.60
2023-05-22T18:36:31.593Z,30.20
2023-05-22T18:38:58.603Z,28.40
2023-05-22T18:41:26.092Z,29.05
2023-05-22T18:43:52.730Z,28.40
2023-05-22T18:46:19.402Z,27.27
2023-05-22T18:48:46.241Z,23.65
2023-05-22T18:51:13.438Z,23.63
2023-05-22T18:53:40.414Z,23.90
2023-05-22T18:56:07.068Z,24.83
2023-05-22T18:58:33.748Z,23.70
2023-05-22T19:01:01.593Z,23.83
2023-05-22T19:03:28.490Z,25.50
2023-05-22T19:05:55.313Z,25.35
2023-05-22T19:08:24.718Z,27.23
2023-05-22T19:10:51.590Z,24.60
2023-05-22T19:13:18.526Z,24.33
2023-05-22T19:15:46.309Z,25.98
2023-05-22T19:18:13.465Z,26.00
2023-05-22T19:20:40.532Z,26.30
2023-05-22T19:23:09.526Z,27.48
2023-05-22T19:25:36.194Z,25.77
2023-05-22T19:28:03.265Z,25.67
2023-05-22T19:30:30.081Z,26.98
2023-05-22T19:32:59.854Z,24.92
2023-05-22T19:35:26.634Z,24.48
2023-05-22T19:38:00.781Z,25.63
2023-05-22T19:40:27.456Z,27.77
2023-05-22T19:43:02.201Z,26.95
2023-05-22T19:45:29.339Z,25.13
2023-05-22T19:47:56.041Z,25.05
2023-05-22T19:50:22.868Z,23.27
2023-05-22T19:52:49.633Z,23.10
2023-05-22T19:55:16.361Z,22.60
2023-05-22T19:57:44.759Z,24.65
2023-05-22T20:00:12.285Z,26.77
2023-05-22T20:02:39.868Z,26.75
2023-05-22T20:05:12.884Z,28.80
2023-05-22T20:07:40.202Z,28.50
2023-05-22T20:10:10.093Z,29.70
2023-05-22T20:12:37.610Z,30.33
2023-05-22T20:15:06.752Z,30.23
2023-05-22T20:17:34.046Z,34.28
2023-05-22T20:20:00.914Z,33.67
2023-05-22T20:22:27.755Z,35.58
2023-05-22T20:24:54.498Z,33.20
2023-05-22T20:27:21.254Z,36.75
2023-05-22T20:29:50.125Z,33.25
2023-05-22T20:32:16.988Z,35.63
2023-05-22T20:34:45.361Z,37.50
2023-05-22T20:37:13.332Z,37.90
2023-05-22T20:39:42.958Z,37.03
2023-05-22T20:42:11.457Z,37.22
2023-05-22T20:44:38.542Z,38.70
2023-05-22T20:47:06.068Z,38.17
2023-05-22T20:49:34.582Z,35.67
2023-05-22T20:52:02.640Z,33.88
2023-05-22T20:57:03.958Z,35.45
2023-05-22T20:59:30.829Z,34.88
2023-05-22T21:01:57.819Z,36.42
2023-05-22T21:04:26.293Z,36.17
2023-05-22T21:06:53.082Z,36.53
2023-05-22T21:09:19.830Z,38.95
2023-05-22T21:11:46.741Z,36.80
2023-05-22T21:14:14.059Z,37.00
2023-05-22T21:16:40.838Z,39.40
2023-05-22T21:19:07.854Z,38.83
2023-05-22T21:21:36.100Z,40.25
2023-05-22T21:24:03.255Z,39.70
2023-05-22T21:26:30.085Z,40.15
2023-05-22T21:28:57.085Z,41.53
2023-05-22T21:31:24.290Z,42.70
2023-05-22T21:33:51.107Z,44.63
2023-05-22T21:36:17.869Z,44.72
2023-05-22T21:38:45.390Z,44.85
2023-05-22T21:41:12.559Z,47.60
2023-05-22T21:43:39.377Z,48.95
2023-05-22T21:46:06.079Z,49.33
2023-05-22T21:48:32.754Z,47.08
2023-05-22T21:50:59.644Z,49.83
2023-05-22T21:53:26.446Z,51.15
2023-05-22T21:55:53.147Z,48.05
2023-05-22T21:58:19.841Z,47.25
2023-05-22T22:00:46.586Z,45.72
2023-05-22T22:03:13.489Z,46.38
2023-05-22T22:05:40.251Z,49.38
2023-05-22T22:08:06.898Z,49.00
2023-05-22T22:10:33.603Z,47.40
2023-05-22T22:13:01.727Z,48.88
2023-05-22T22:15:28.481Z,50.30
2023-05-22T22:17:59.611Z,52.67
2023-05-22T22:20:42.631Z,51.67
2023-05-22T22:23:10.794Z,51.30
2023-05-22T22:25:38.861Z,50.50
2023-05-22T22:28:05.893Z,54.03
2023-05-22T22:30:32.691Z,55.10
2023-05-22T22:32:59.612Z,53.67
2023-05-22T22:35:26.459Z,52.30
2023-05-22T22:37:53.216Z,55.83
2023-05-22T22:40:19.850Z,54.38
2023-05-22T22:42:46.495Z,57.05
2023-05-22T22:45:14.596Z,58.40
2023-05-22T22:47:41.339Z,64.00
2023-05-22T22:50:09.748Z,67.15
2023-05-22T22:52:38.193Z,64.13
2023-05-22T22:55:06.539Z,70.22
2023-05-22T22:57:33.652Z,72.78
2023-05-22T23:00:00.549Z,74.60
2023-05-22T23:02:27.232Z,77.53
2023-05-22T23:04:54.116Z,76.97
2023-05-22T23:07:23.997Z,82.88
2023-05-22T23:09:50.728Z,86.20
2023-05-22T23:12:17.525Z,85.50
2023-05-22T23:14:44.826Z,89.78
2023-05-22T23:17:11.693Z,91.25
2023-05-22T23:19:38.382Z,94.97
2023-05-22T23:22:05.852Z,93.68
2023-05-22T23:24:32.501Z,106.05
2023-05-22T23:26:59.264Z,92.15
2023-05-22T23:29:25.940Z,86.10
2023-05-22T23:31:52.863Z,80.63
2023-05-22T23:34:19.595Z,80.93
2023-05-22T23:36:46.215Z,81.88
2023-05-22T23:39:12.837Z,85.90
2023-05-22T23:41:39.525Z,80.00
2023-05-22T23:44:06.236Z,83.50
2023-05-22T23:46:32.888Z,75.75
2023-05-22T23:48:59.578Z,74.13
2023-05-22T23:51:26.265Z,72.10
2023-05-22T23:53:52.872Z,64.70
2023-05-22T23:56:19.892Z,56.38
2023-05-22T23:58:46.518Z,49.33
